Time;durP1;ratioP1;P1;durP2;ratioP2;P2;SDS_P1;SDS_P2;PMS_P1;PMS_P2;Temp;Humidity;BMP_temperature;BMP_pressure;BME280_temperature;BME280_humidity;BME280_pressure;Samples;Min_cycle;Max_cycle;Signal;HPM_P1;HPM_P2
2023/04/04 00:01:18;;;;;;;;;;;;;;;19.89;42.58;100285.41;103833;1289;61453;-83
2023/04/04 00:03:43;;;;;;;;;;;;;;;19.89;42.59;100284.90;103763;1289;61374;-83
2023/04/04 00:06:10;;;;;;;;;;;;;;;19.89;42.52;100270.23;103721;1290;61348;-83
2023/04/04 00:08:36;;;;;;;;;;;;;;;19.89;42.57;100262.39;103311;1286;61944;-83
2023/04/04 00:11:01;;;;;;;;;;;;;;;19.89;42.68;100267.91;103845;1291;61386;-83
2023/04/04 00:13:28;;;;;;;;;;;;;;;19.89;42.57;100276.36;103764;1291;61410;-83
2023/04/04 00:15:54;;;;;;;;;;;;;;;19.89;42.53;100278.13;103726;1289;61410;-84
2023/04/04 00:18:20;;;;;;;;;;;;;;;19.89;42.50;100275.08;103681;1291;61301;-83
2023/04/04 00:20:46;;;;;;;;;;;;;;;19.89;42.42;100279.71;103774;1291;61694;-84
2023/04/04 00:23:11;;;;;;;;;;;;;;;19.88;42.40;100265.83;103841;1291;61330;-83
2023/04/04 00:25:37;;;;;;;;;;;;;;;19.89;42.34;100255.27;103734;1289;61499;-83
2023/04/04 00:28:02;;;;;;;;;;;;;;;19.89;42.30;100254.17;103787;1287;61377;-83
2023/04/04 00:30:28;;;;;;;;;;;;;;;19.88;42.30;100264.95;103746;1289;61326;-85
2023/04/04 00:32:55;;;;;;;;;;;;;;;19.89;42.32;100270.44;103773;1291;61365;-83
2023/04/04 00:35:21;;;;;;;;;;;;;;;19.89;42.30;100273.26;103787;1287;62448;-83
2023/04/04 00:37:46;;;;;;;;;;;;;;;19.89;42.31;100253.98;103771;1291;61388;-83
2023/04/04 00:40:12;;;;;;;;;;;;;;;19.89;42.26;100241.30;103766;1291;61477;-84
2023/04/04 00:42:38;;;;;;;;;;;;;;;19.89;42.36;100242.77;103660;1291;72307;-84
2023/04/04 00:45:06;;;;;;;;;;;;;;;19.89;42.19;100245.80;103694;1291;61544;-84
2023/04/04 00:47:35;;;;;;;;;;;;;;;19.89;42.24;100246.34;103697;1289;61455;-83
2023/04/04 00:50:08;;;;;;;;;;;;;;;19.90;42.29;100248.44;103623;1289;61260;-84
2023/04/04 00:52:33;;;;;;;;;;;;;;;19.88;42.25;100248.70;103746;1290;73500;-84
2023/04/04 00:54:59;;;;;;;;;;;;;;;19.89;42.24;100243.08;103732;1286;61477;-84
2023/04/04 00:57:25;;;;;;;;;;;;;;;19.89;42.12;100242.08;103673;1289;61346;-83
2023/04/04 00:59:51;;;;;;;;;;;;;;;19.89;42.20;100247.05;103702;1287;61380;-84
2023/04/04 01:02:16;;;;;;;;;;;;;;;19.89;42.06;100240.61;103692;1289;61385;-83
2023/04/04 01:04:42;;;;;;;;;;;;;;;19.89;42.11;100236.35;103852;1291;61857;-83
2023/04/04 01:07:08;;;;;;;;;;;;;;;19.89;42.21;100241.67;103722;1287;75852;-84
2023/04/04 01:09:33;;;;;;;;;;;;;;;19.88;42.03;100234.77;103708;1289;61400;-84
2023/04/04 01:11:59;;;;;;;;;;;;;;;19.89;42.12;100233.30;103705;1286;62478;-84
2023/04/04 01:14:24;;;;;;;;;;;;;;;19.89;42.03;100221.89;103721;1288;61397;-82
2023/04/04 01:16:50;;;;;;;;;;;;;;;19.89;42.13;100221.90;103670;1286;62483;-83
2023/04/04 01:19:32;;;;;;;;;;;;;;;19.89;42.06;100217.41;103744;1287;75215;-84
2023/04/04 01:21:59;;;;;;;;;;;;;;;19.88;42.03;100220.85;103726;1286;61662;-84
2023/04/04 01:24:24;;;;;;;;;;;;;;;19.89;42.00;100231.90;103758;1286;61400;-83
2023/04/04 01:26:50;;;;;;;;;;;;;;;19.88;42.13;100217.81;104060;1290;61326;-82
2023/04/04 01:29:15;;;;;;;;;;;;;;;19.88;42.05;100223.52;103791;1289;61417;-83
2023/04/04 01:31:42;;;;;;;;;;;;;;;19.89;41.99;100224.05;103730;1291;61405;-83
2023/04/04 01:34:13;;;;;;;;;;;;;;;19.89;41.93;100219.93;103757;1289;61969;-83
2023/04/04 01:36:45;;;;;;;;;;;;;;;19.88;41.93;100226.21;103823;1287;73363;-83
2023/04/04 01:39:30;;;;;;;;;;;;;;;19.89;41.81;100224.57;103693;1291;75004;-84
2023/04/04 01:41:59;;;;;;;;;;;;;;;19.88;41.95;100219.06;103722;1286;62140;-83
2023/04/04 01:44:25;;;;;;;;;;;;;;;19.89;41.90;100226.73;103685;1286;62239;-84
2023/04/04 01:46:56;;;;;;;;;;;;;;;19.89;41.95;100232.44;103672;1286;61381;-83
2023/04/04 01:49:24;;;;;;;;;;;;;;;19.89;41.98;100237.26;103734;1290;75978;-84
2023/04/04 01:51:50;;;;;;;;;;;;;;;19.89;41.88;100238.65;103744;1289;62565;-83
2023/04/04 01:54:17;;;;;;;;;;;;;;;19.89;41.86;100232.61;103719;1287;61481;-84
2023/04/04 01:56:45;;;;;;;;;;;;;;;19.89;41.78;100217.77;103690;1290;72498;-83
2023/04/04 01:59:10;;;;;;;;;;;;;;;19.89;41.76;100202.78;103696;1286;74777;-84
2023/04/04 02:01:36;;;;;;;;;;;;;;;19.89;41.69;100187.98;103713;1289;61396;-83
2023/04/04 02:04:02;;;;;;;;;;;;;;;19.89;41.76;100175.29;103620;1289;61419;-84
2023/04/04 02:06:28;;;;;;;;;;;;;;;19.88;41.78;100163.89;103785;1291;61486;-83
2023/04/04 02:08:55;;;;;;;;;;;;;;;19.88;41.85;100154.06;103679;1289;61313;-83
2023/04/04 02:11:21;;;;;;;;;;;;;;;19.88;41.63;100154.77;103756;1288;61406;-83
2023/04/04 02:13:50;;;;;;;;;;;;;;;19.88;41.72;100164.27;103805;1287;61355;-83
2023/04/04 02:16:17;;;;;;;;;;;;;;;19.88;41.66;100158.02;103792;1288;73411;-83
2023/04/04 02:18:42;;;;;;;;;;;;;;;19.88;41.59;100164.45;103750;1291;61429;-84
2023/04/04 02:21:08;;;;;;;;;;;;;;;19.88;41.67;100155.52;103725;1286;61394;-83
2023/04/04 02:23:33;;;;;;;;;;;;;;;19.88;41.72;100158.36;103806;1290;61658;-83
2023/04/04 02:25:59;;;;;;;;;;;;;;;19.88;41.59;100166.93;103697;1287;61990;-84
2023/04/04 02:28:27;;;;;;;;;;;;;;;19.88;41.52;100171.90;103773;1286;61458;-82
2023/04/04 02:30:52;;;;;;;;;;;;;;;19.88;41.49;100159.97;103742;1287;75641;-84
2023/04/04 02:33:18;;;;;;;;;;;;;;;19.88;41.52;100165.30;103747;1286;61348;-84
2023/04/04 02:35:44;;;;;;;;;;;;;;;19.88;41.51;100155.31;103808;1287;61381;-83
2023/04/04 02:38:11;;;;;;;;;;;;;;;19.88;41.46;100151.04;103786;1287;61503;-82
2023/04/04 02:40:38;;;;;;;;;;;;;;;19.89;41.39;100133.86;103658;1286;62533;-84
2023/04/04 02:43:04;;;;;;;;;;;;;;;19.89;41.49;100124.54;103769;1291;61286;-83
2023/04/04 02:45:31;;;;;;;;;;;;;;;19.88;41.40;100107.10;103732;1287;61381;-82
2023/04/04 02:47:57;;;;;;;;;;;;;;;19.88;41.47;100100.88;103748;1289;61795;-82
2023/04/04 02:50:22;;;;;;;;;;;;;;;19.88;41.38;100109.08;103732;1288;61391;-83
2023/04/04 02:52:48;;;;;;;;;;;;;;;19.88;41.23;100119.27;103755;1287;62516;-83
2023/04/04 02:55:13;;;;;;;;;;;;;;;19.88;41.36;100136.73;103650;1289;61461;-83
2023/04/04 02:57:39;;;;;;;;;;;;;;;19.88;41.38;100138.17;103657;1289;61358;-84
2023/04/04 03:00:06;;;;;;;;;;;;;;;19.89;41.35;100148.33;103743;1291;61429;-82
2023/04/04 03:02:32;;;;;;;;;;;;;;;19.88;41.28;100150.86;103749;1287;61365;-83
2023/04/04 03:04:57;;;;;;;;;;;;;;;19.88;41.31;100168.55;103692;1291;61403;-83
2023/04/04 03:07:26;;;;;;;;;;;;;;;19.88;41.30;100162.15;103718;1286;61782;-84
2023/04/04 03:09:51;;;;;;;;;;;;;;;19.88;41.29;100160.85;103748;1286;61641;-83
2023/04/04 03:12:19;;;;;;;;;;;;;;;19.88;41.28;100172.27;103686;1286;61420;-85
2023/04/04 03:14:44;;;;;;;;;;;;;;;19.88;41.30;100165.51;103779;1286;61545;-83
2023/04/04 03:17:13;;;;;;;;;;;;;;;19.88;41.35;100168.89;103750;1291;61375;-83
2023/04/04 03:19:39;;;;;;;;;;;;;;;19.88;41.26;100168.02;103699;1287;73578;-83
2023/04/04 03:22:04;;;;;;;;;;;;;;;19.88;41.29;100171.20;103658;1286;61406;-83
2023/04/04 03:24:30;;;;;;;;;;;;;;;19.89;41.23;100164.20;103836;1289;61742;-84
2023/04/04 03:26:55;;;;;;;;;;;;;;;19.88;41.22;100174.24;103707;1288;61375;-83
2023/04/04 03:29:21;;;;;;;;;;;;;;;19.89;41.20;100185.64;103740;1287;61384;-83
2023/04/04 03:31:48;;;;;;;;;;;;;;;19.89;41.08;100177.96;103708;1287;61393;-83
2023/04/04 03:34:14;;;;;;;;;;;;;;;19.89;41.23;100162.27;103758;1289;75567;-83
2023/04/04 03:36:40;;;;;;;;;;;;;;;19.88;40.98;100160.30;103818;1289;61455;-83
2023/04/04 03:39:05;;;;;;;;;;;;;;;19.88;41.06;100164.95;103655;1289;61305;-84
2023/04/04 03:41:31;;;;;;;;;;;;;;;19.88;40.99;100162.09;103662;1289;61404;-83
2023/04/04 03:43:56;;;;;;;;;;;;;;;19.88;41.05;100166.56;103733;1291;61409;-83
2023/04/04 03:46:22;;;;;;;;;;;;;;;19.89;41.07;100152.76;103977;1286;62551;-83
2023/04/04 03:48:47;;;;;;;;;;;;;;;19.89;41.02;100162.03;103972;1286;60202;-83
2023/04/04 03:51:13;;;;;;;;;;;;;;;19.88;41.04;100161.02;103881;1286;61316;-83
2023/04/04 03:53:39;;;;;;;;;;;;;;;19.88;40.97;100159.98;103814;1286;61435;-82
2023/04/04 03:56:05;;;;;;;;;;;;;;;19.87;40.97;100159.48;103837;1286;61367;-82
2023/04/04 03:58:30;;;;;;;;;;;;;;;19.87;40.92;100160.45;103816;1287;61340;-84
2023/04/04 04:00:57;;;;;;;;;;;;;;;19.86;40.77;100168.36;103949;1286;61358;-83
2023/04/04 04:03:22;;;;;;;;;;;;;;;19.85;40.82;100161.10;103771;1286;62487;-83
2023/04/04 04:05:48;;;;;;;;;;;;;;;19.84;40.88;100157.79;103987;1286;61378;-81
2023/04/04 04:08:14;;;;;;;;;;;;;;;19.83;40.88;100159.47;104149;1286;61416;-81
2023/04/04 04:10:40;;;;;;;;;;;;;;;19.83;40.74;100160.17;104126;1286;60100;-83
2023/04/04 04:13:06;;;;;;;;;;;;;;;19.82;40.65;100152.55;103842;1286;62514;-83
2023/04/04 04:15:32;;;;;;;;;;;;;;;19.82;40.63;100149.36;103934;1286;61368;-83
2023/04/04 04:17:57;;;;;;;;;;;;;;;19.83;40.60;100161.66;103839;1286;61382;-83
2023/04/04 04:20:24;;;;;;;;;;;;;;;19.83;40.49;100153.42;103798;1285;61809;-83
2023/04/04 04:22:49;;;;;;;;;;;;;;;19.83;40.34;100162.00;104099;1286;61375;-83
2023/04/04 04:25:16;;;;;;;;;;;;;;;19.82;40.16;100157.92;103884;1286;61298;-84
2023/04/04 04:27:43;;;;;;;;;;;;;;;19.83;40.30;100166.82;103815;1286;61453;-84
2023/04/04 04:30:09;;;;;;;;;;;;;;;19.83;40.23;100164.63;103713;1288;61168;-84
2023/04/04 04:32:34;;;;;;;;;;;;;;;19.84;40.10;100158.71;103811;1289;61380;-84
2023/04/04 04:35:00;;;;;;;;;;;;;;;19.84;40.11;100172.96;104045;1286;61400;-83
2023/04/04 04:37:27;;;;;;;;;;;;;;;19.86;39.93;100178.90;103931;1286;61394;-83
2023/04/04 04:39:52;;;;;;;;;;;;;;;19.85;39.78;100190.01;104082;1286;61714;-83
2023/04/04 04:42:18;;;;;;;;;;;;;;;19.80;39.57;100199.33;103930;1291;61384;-83
2023/04/04 04:44:46;;;;;;;;;;;;;;;19.64;39.45;100217.47;104153;1288;61448;-84
2023/04/04 04:47:11;;;;;;;;;;;;;;;19.34;39.16;100225.70;104422;1286;61371;-83
2023/04/04 04:49:36;;;;;;;;;;;;;;;19.12;39.02;100240.88;104727;1285;61410;-85
2023/04/04 04:52:02;;;;;;;;;;;;;;;18.91;39.25;100241.98;104676;1286;61354;-83
2023/04/04 04:54:27;;;;;;;;;;;;;;;18.76;38.66;100239.83;104739;1286;61387;-81
2023/04/04 04:56:53;;;;;;;;;;;;;;;18.44;38.64;100231.99;104896;1286;61336;-83
2023/04/04 04:59:19;;;;;;;;;;;;;;;18.18;38.65;100221.84;105050;1285;61282;-82
2023/04/04 05:01:45;;;;;;;;;;;;;;;17.91;38.38;100222.58;104987;1286;61413;-82
2023/04/04 05:04:10;;;;;;;;;;;;;;;17.71;38.66;100216.02;105567;1285;60296;-82
2023/04/04 05:06:37;;;;;;;;;;;;;;;17.77;38.80;100209.23;105252;1286;60313;-82
2023/04/04 05:09:02;;;;;;;;;;;;;;;17.70;38.38;100208.81;105289;1286;61276;-82
2023/04/04 05:11:28;;;;;;;;;;;;;;;17.22;37.88;100220.48;105172;1285;61301;-82
2023/04/04 05:13:53;;;;;;;;;;;;;;;16.96;38.37;100218.39;105173;1286;61193;-83
2023/04/04 05:16:19;;;;;;;;;;;;;;;17.16;38.67;100212.87;105103;1286;61362;-82
2023/04/04 05:18:44;;;;;;;;;;;;;;;17.42;38.66;100212.12;104623;1292;61452;-82
2023/04/04 05:21:10;;;;;;;;;;;;;;;17.68;38.60;100203.28;104884;1286;59919;-82
2023/04/04 05:23:36;;;;;;;;;;;;;;;17.91;38.39;100196.42;104955;1286;61368;-83
2023/04/04 05:26:01;;;;;;;;;;;;;;;18.12;38.51;100180.80;105468;1286;59716;-81
2023/04/04 05:28:27;;;;;;;;;;;;;;;18.31;38.31;100169.14;105287;1285;74272;-82
2023/04/04 05:30:53;;;;;;;;;;;;;;;18.49;38.30;100173.09;105058;1286;61399;-81
2023/04/04 05:33:18;;;;;;;;;;;;;;;18.65;38.25;100165.73;106502;1285;59434;-82
2023/04/04 05:35:44;;;;;;;;;;;;;;;18.79;38.25;100162.79;105338;1288;61394;-82
2023/04/04 05:38:10;;;;;;;;;;;;;;;18.91;38.09;100165.67;104957;1285;62699;-81
2023/04/04 05:40:36;;;;;;;;;;;;;;;19.04;38.09;100156.94;105051;1286;61288;-81
2023/04/04 05:43:03;;;;;;;;;;;;;;;19.16;38.07;100161.25;105004;1292;61080;-81
2023/04/04 05:45:29;;;;;;;;;;;;;;;19.26;38.02;100155.83;105054;1285;61321;-82
2023/04/04 05:47:54;;;;;;;;;;;;;;;19.35;38.01;100149.11;105290;1286;61327;-84
2023/04/04 05:50:20;;;;;;;;;;;;;;;19.42;38.05;100143.55;105687;1286;61305;-82
2023/04/04 05:52:45;;;;;;;;;;;;;;;19.50;38.03;100138.52;105604;1286;61412;-82
2023/04/04 05:55:11;;;;;;;;;;;;;;;19.58;37.85;100135.44;105852;1285;60637;-82
2023/04/04 05:57:36;;;;;;;;;;;;;;;19.63;38.05;100132.23;105679;1286;61261;-82
2023/04/04 06:00:04;;;;;;;;;;;;;;;19.67;38.01;100122.30;105704;1286;61365;-81
2023/04/04 06:02:30;;;;;;;;;;;;;;;19.70;38.17;100124.71;105661;1285;74163;-81
2023/04/04 06:04:56;;;;;;;;;;;;;;;19.74;38.12;100118.11;105766;1286;60824;-81
2023/04/04 06:07:22;;;;;;;;;;;;;;;19.80;38.26;100120.25;105913;1286;59852;-81
2023/04/04 06:09:47;;;;;;;;;;;;;;;19.84;38.30;100129.38;105608;1287;60189;-81
2023/04/04 06:12:13;;;;;;;;;;;;;;;19.89;38.25;100127.94;105694;1285;59631;-82
2023/04/04 06:14:38;;;;;;;;;;;;;;;19.93;38.37;100129.24;105093;1286;61393;-82
2023/04/04 06:17:04;;;;;;;;;;;;;;;19.95;38.28;100118.17;105109;1288;61327;-82
2023/04/04 06:19:29;;;;;;;;;;;;;;;19.97;38.27;100106.40;105128;1286;60025;-83
2023/04/04 06:21:55;;;;;;;;;;;;;;;19.99;38.26;100115.23;105051;1291;61542;-82
2023/04/04 06:24:20;;;;;;;;;;;;;;;20.00;38.22;100108.92;105237;1287;59766;-82
2023/04/04 06:26:50;;;;;;;;;;;;;;;19.98;38.19;100102.83;105085;1286;61368;-82
2023/04/04 06:29:16;;;;;;;;;;;;;;;19.97;38.09;100106.48;105464;1285;61263;-82
2023/04/04 06:31:42;;;;;;;;;;;;;;;19.96;38.06;100093.31;105331;1288;60488;-82
2023/04/04 06:34:08;;;;;;;;;;;;;;;19.96;38.13;100089.93;105437;1286;61269;-82
2023/04/04 06:36:34;;;;;;;;;;;;;;;19.96;37.95;100090.08;105156;1286;60021;-82
2023/04/04 06:38:59;;;;;;;;;;;;;;;19.96;37.77;100076.14;105127;1286;61362;-82
2023/04/04 06:41:25;;;;;;;;;;;;;;;19.96;37.78;100073.13;105145;1289;59361;-82
2023/04/04 06:43:50;;;;;;;;;;;;;;;19.97;37.75;100069.68;104863;1286;73466;-82
2023/04/04 06:46:16;;;;;;;;;;;;;;;19.97;37.78;100081.06;105280;1286;59309;-82
2023/04/04 06:48:42;;;;;;;;;;;;;;;19.98;37.82;100081.04;105342;1286;61134;-82
2023/04/04 06:51:07;;;;;;;;;;;;;;;19.98;37.60;100079.38;105278;1286;60814;-83
2023/04/04 06:53:33;;;;;;;;;;;;;;;19.98;37.54;100074.95;105582;1286;60748;-82
2023/04/04 06:55:59;;;;;;;;;;;;;;;19.94;37.48;100083.27;105170;1286;61314;-82
2023/04/04 06:58:25;;;;;;;;;;;;;;;19.89;37.51;100077.04;105144;1290;63056;-83
2023/04/04 07:00:51;;;;;;;;;;;;;;;19.85;37.42;100069.48;105292;1286;61153;-82
2023/04/04 07:03:16;;;;;;;;;;;;;;;19.66;37.29;100056.48;105360;1286;60659;-82
2023/04/04 07:05:42;;;;;;;;;;;;;;;19.62;37.42;100048.20;104545;1289;694476;-81
2023/04/04 07:08:08;;;;;;;;;;;;;;;19.64;37.50;100052.67;105016;1289;61251;-82
2023/04/04 07:10:34;;;;;;;;;;;;;;;19.66;37.40;100048.64;106334;1286;59240;-82
2023/04/04 07:12:59;;;;;;;;;;;;;;;19.65;37.34;100049.59;106148;1286;60451;-82
2023/04/04 07:15:26;;;;;;;;;;;;;;;19.64;37.23;100058.40;105458;1286;61004;-82
2023/04/04 07:17:52;;;;;;;;;;;;;;;19.60;37.26;100060.64;105100;1286;72619;-82
2023/04/04 07:20:18;;;;;;;;;;;;;;;19.57;37.24;100060.89;105109;1285;61342;-82
2023/04/04 07:22:43;;;;;;;;;;;;;;;19.55;37.13;100058.17;105177;1289;61457;-80
2023/04/04 07:25:09;;;;;;;;;;;;;;;19.57;37.03;100059.81;105176;1286;61522;-84
2023/04/04 07:27:34;;;;;;;;;;;;;;;19.59;37.03;100058.55;105132;1286;61442;-81
2023/04/04 07:30:00;;;;;;;;;;;;;;;19.61;36.89;100075.59;105080;1286;72554;-81
2023/04/04 07:32:25;;;;;;;;;;;;;;;19.59;37.04;100080.51;105091;1286;61366;-82
2023/04/04 07:34:51;;;;;;;;;;;;;;;19.62;36.86;100092.12;104808;1286;60973;-83
2023/04/04 07:37:17;;;;;;;;;;;;;;;19.66;36.76;100097.03;105107;1286;61311;-80
2023/04/04 07:39:43;;;;;;;;;;;;;;;19.69;36.85;100111.08;105610;1286;61317;-81
2023/04/04 07:42:08;;;;;;;;;;;;;;;19.72;36.81;100110.85;105219;1286;61300;-81
2023/04/04 07:44:34;;;;;;;;;;;;;;;19.76;36.69;100113.56;105030;1286;75565;-81
2023/04/04 07:47:00;;;;;;;;;;;;;;;19.78;36.60;100117.48;105062;1286;62159;-84
2023/04/04 07:49:25;;;;;;;;;;;;;;;19.79;36.45;100120.98;105181;1291;60142;-84
2023/04/04 07:51:51;;;;;;;;;;;;;;;19.79;36.64;100121.55;105276;1285;60850;-82
2023/04/04 07:54:16;;;;;;;;;;;;;;;19.78;36.47;100120.70;105420;1286;61122;-81
2023/04/04 07:56:42;;;;;;;;;;;;;;;19.79;36.50;100120.15;105286;1286;74458;-82
2023/04/04 07:59:08;;;;;;;;;;;;;;;19.78;36.22;100130.20;104899;1288;61261;-82
2023/04/04 08:01:33;;;;;;;;;;;;;;;19.77;36.35;100120.80;105166;1286;59694;-85
2023/04/04 08:03:59;;;;;;;;;;;;;;;19.76;36.25;100120.64;105452;1286;61391;-84
2023/04/04 08:06:25;;;;;;;;;;;;;;;19.75;36.33;100123.40;105370;1289;61271;-82
2023/04/04 08:08:51;;;;;;;;;;;;;;;19.75;36.42;100117.87;105268;1291;63475;-83
2023/04/04 08:11:16;;;;;;;;;;;;;;;19.76;36.42;100110.70;105291;1286;61393;-85
2023/04/04 08:13:42;;;;;;;;;;;;;;;19.77;36.57;100108.45;105504;1286;60622;-83
2023/04/04 08:16:07;;;;;;;;;;;;;;;19.80;36.48;100114.36;105360;1288;60525;-84
2023/04/04 08:18:32;;;;;;;;;;;;;;;19.82;36.84;100114.93;105431;1286;61348;-82
2023/04/04 08:20:58;;;;;;;;;;;;;;;19.85;36.71;100113.45;105311;1286;60067;-82
2023/04/04 08:23:24;;;;;;;;;;;;;;;19.88;36.72;100114.12;105259;1286;61370;-81
2023/04/04 08:25:50;;;;;;;;;;;;;;;19.91;36.84;100121.69;106476;1285;59645;-82
2023/04/04 08:28:15;;;;;;;;;;;;;;;19.94;36.97;100113.29;106424;1286;59038;-82
2023/04/04 08:30:41;;;;;;;;;;;;;;;19.96;36.87;100112.04;106445;1290;59250;-83
2023/04/04 08:33:07;;;;;;;;;;;;;;;20.00;36.95;100109.27;106407;1286;59216;-82
2023/04/04 08:35:34;;;;;;;;;;;;;;;20.02;37.00;100113.39;106416;1286;59153;-82
2023/04/04 08:38:01;;;;;;;;;;;;;;;20.05;37.12;100111.36;106466;1285;59231;-82
2023/04/04 08:40:29;;;;;;;;;;;;;;;20.07;37.20;100116.01;104845;1286;64094;-82
2023/04/04 08:42:54;;;;;;;;;;;;;;;20.09;37.08;100118.14;105027;1286;61423;-82
2023/04/04 08:45:20;;;;;;;;;;;;;;;20.10;37.15;100113.98;105006;1286;61279;-83
2023/04/04 08:47:48;;;;;;;;;;;;;;;20.10;37.19;100112.00;105008;1289;61230;-83
2023/04/04 08:50:13;;;;;;;;;;;;;;;20.12;37.15;100111.05;104856;1287;61359;-83
2023/04/04 08:52:38;;;;;;;;;;;;;;;20.13;37.19;100109.36;105294;1286;59712;-82
2023/04/04 08:55:04;;;;;;;;;;;;;;;20.14;37.24;100109.82;105437;1286;60010;-81
2023/04/04 08:57:30;;;;;;;;;;;;;;;20.14;37.26;100104.94;105542;1286;61670;-82
2023/04/04 08:59:56;;;;;;;;;;;;;;;20.13;37.35;100100.90;105365;1286;61289;-82
2023/04/04 09:02:21;;;;;;;;;;;;;;;20.01;36.96;100092.95;105352;1286;61329;-82
2023/04/04 09:04:47;;;;;;;;;;;;;;;19.75;37.20;100100.77;105519;1286;59690;-82
2023/04/04 09:07:13;;;;;;;;;;;;;;;19.66;37.39;100098.64;105497;1286;61378;-81
2023/04/04 09:09:39;;;;;;;;;;;;;;;19.59;37.49;100100.86;105289;1286;59360;-83
2023/04/04 09:12:05;;;;;;;;;;;;;;;19.64;37.63;100106.47;105150;1286;61303;-83
2023/04/04 09:14:31;;;;;;;;;;;;;;;19.69;37.68;100103.92;105333;1286;75506;-82
2023/04/04 09:16:56;;;;;;;;;;;;;;;19.74;37.82;100101.73;105488;1286;61386;-82
2023/04/04 09:19:22;;;;;;;;;;;;;;;19.80;37.95;100104.38;105509;1287;61365;-83
2023/04/04 09:21:47;;;;;;;;;;;;;;;19.84;37.99;100104.23;105501;1288;59543;-82
2023/04/04 09:24:13;;;;;;;;;;;;;;;19.87;37.84;100091.80;105546;1290;59692;-82
2023/04/04 09:26:46;;;;;;;;;;;;;;;19.91;37.87;100097.41;105599;1285;75473;-82
2023/04/04 09:29:12;;;;;;;;;;;;;;;19.95;38.06;100098.37;105196;1286;61200;-82
2023/04/04 09:31:38;;;;;;;;;;;;;;;19.98;37.96;100095.96;105288;1286;61320;-83
2023/04/04 09:34:04;;;;;;;;;;;;;;;20.03;37.94;100092.06;105510;1285;61275;-82
2023/04/04 09:36:30;;;;;;;;;;;;;;;20.06;38.10;100096.25;105433;1286;60732;-83
2023/04/04 09:38:55;;;;;;;;;;;;;;;20.08;38.20;100094.30;105112;1286;61298;-83
2023/04/04 09:41:22;;;;;;;;;;;;;;;20.09;38.13;100095.45;105252;1285;59885;-82
2023/04/04 09:43:48;;;;;;;;;;;;;;;20.13;38.22;100097.18;104823;1286;61284;-83
2023/04/04 09:46:14;;;;;;;;;;;;;;;20.15;38.03;100094.73;105111;1286;61391;-82
2023/04/04 09:48:41;;;;;;;;;;;;;;;20.15;38.13;100096.67;105180;1286;75500;-83
2023/04/04 09:51:08;;;;;;;;;;;;;;;20.14;38.02;100100.11;105404;1290;61320;-83
2023/04/04 09:53:35;;;;;;;;;;;;;;;20.15;38.10;100098.42;105406;1285;62344;-83
2023/04/04 09:56:01;;;;;;;;;;;;;;;20.14;37.88;100101.76;105360;1285;72476;-83
2023/04/04 09:58:27;;;;;;;;;;;;;;;20.14;38.08;100102.64;105083;1291;61361;-84
2023/04/04 10:00:57;;;;;;;;;;;;;;;20.15;38.20;100102.94;105050;1291;59738;-83
2023/04/04 10:03:24;;;;;;;;;;;;;;;20.05;37.65;100106.36;105275;1290;61153;-82
2023/04/04 10:05:57;;;;;;;;;;;;;;;19.46;37.25;100111.91;105441;1285;61225;-83
2023/04/04 10:08:24;;;;;;;;;;;;;;;18.98;37.66;100108.86;105459;1288;74449;-85
2023/04/04 10:10:50;;;;;;;;;;;;;;;18.72;37.65;100117.23;105136;1285;61199;-82
2023/04/04 10:13:27;;;;;;;;;;;;;;;18.66;38.00;100110.77;105617;1291;61201;-83
2023/04/04 10:15:52;;;;;;;;;;;;;;;18.75;38.07;100114.36;105290;1289;72242;-83
2023/04/04 10:18:22;;;;;;;;;;;;;;;18.87;38.03;100117.83;105176;1285;74488;-83
2023/04/04 10:20:48;;;;;;;;;;;;;;;18.98;38.09;100113.08;105442;1291;59871;-83
2023/04/04 10:23:14;;;;;;;;;;;;;;;19.09;38.02;100114.96;105469;1285;61272;-83
2023/04/04 10:25:40;;;;;;;;;;;;;;;19.22;38.07;100117.42;105337;1286;60035;-83
2023/04/04 10:28:07;;;;;;;;;;;;;;;19.34;37.94;100123.63;105604;1286;60707;-83
2023/04/04 10:30:35;;;;;;;;;;;;;;;19.43;37.99;100116.88;105296;1286;61240;-84
2023/04/04 10:33:03;;;;;;;;;;;;;;;19.53;37.76;100120.84;105304;1289;61917;-83
2023/04/04 10:35:29;;;;;;;;;;;;;;;19.60;37.85;100120.99;105023;1286;72331;-83
2023/04/04 10:37:57;;;;;;;;;;;;;;;19.67;37.95;100119.58;104883;1291;61377;-83
2023/04/04 10:40:25;;;;;;;;;;;;;;;19.71;37.95;100115.66;105142;1286;61331;-82
2023/04/04 10:42:51;;;;;;;;;;;;;;;19.76;37.91;100113.89;105055;1288;61211;-82
2023/04/04 10:45:16;;;;;;;;;;;;;;;19.81;38.07;100106.95;105003;1291;59223;-82
2023/04/04 10:47:42;;;;;;;;;;;;;;;19.86;37.90;100115.16;105274;1286;61404;-82
2023/04/04 10:50:10;;;;;;;;;;;;;;;19.91;37.90;100113.65;104888;1291;61234;-82
2023/04/04 10:52:39;;;;;;;;;;;;;;;19.97;37.95;100107.70;104877;1286;61365;-81
2023/04/04 10:55:06;;;;;;;;;;;;;;;20.01;38.08;100105.77;104711;1286;71934;-82
2023/04/04 10:57:35;;;;;;;;;;;;;;;20.05;38.01;100105.45;105075;1291;61269;-81
2023/04/04 11:00:11;;;;;;;;;;;;;;;20.09;38.05;100108.52;105467;1286;62889;-82
2023/04/04 11:02:54;;;;;;;;;;;;;;;20.02;37.96;100107.66;105492;1286;61276;-83
2023/04/04 11:05:21;;;;;;;;;;;;;;;19.79;37.70;100107.96;105906;1286;73582;-83
2023/04/04 11:07:47;;;;;;;;;;;;;;;19.55;37.70;100106.21;106057;1289;75373;-83
2023/04/04 11:10:15;;;;;;;;;;;;;;;19.12;37.55;100109.38;106048;1286;59628;-83
2023/04/04 11:12:44;;;;;;;;;;;;;;;18.65;37.50;100105.30;105962;1286;60922;-83
2023/04/04 11:15:11;;;;;;;;;;;;;;;18.48;37.89;100107.05;105819;1286;73754;-82
2023/04/04 11:17:48;;;;;;;;;;;;;;;18.55;38.08;100101.89;105344;1286;74525;-86
2023/04/04 11:20:15;;;;;;;;;;;;;;;18.61;38.12;100106.42;105404;1290;59737;-82
2023/04/04 11:22:41;;;;;;;;;;;;;;;18.65;38.06;100105.27;105317;1286;61295;-82
2023/04/04 11:25:25;;;;;;;;;;;;;;;18.70;38.08;100100.14;105331;1286;61154;-84
2023/04/04 11:27:56;;;;;;;;;;;;;;;18.79;37.92;100097.73;106487;1290;74386;-83
2023/04/04 11:30:21;;;;;;;;;;;;;;;18.76;37.86;100100.24;106214;1286;61384;-82
2023/04/04 11:32:48;;;;;;;;;;;;;;;18.66;37.88;100094.34;104753;1286;61279;-84
2023/04/04 11:35:14;;;;;;;;;;;;;;;18.69;37.83;100101.44;104720;1286;61829;-83
2023/04/04 11:37:59;;;;;;;;;;;;;;;18.79;37.92;100099.48;104580;1286;61279;-82
2023/04/04 11:40:35;;;;;;;;;;;;;;;18.91;37.91;100100.77;105005;1286;61393;-83
2023/04/04 11:43:02;;;;;;;;;;;;;;;19.01;37.80;100099.88;105722;1286;61295;-83
2023/04/04 11:45:28;;;;;;;;;;;;;;;19.10;37.82;100102.08;104618;1287;72604;-84
2023/04/04 11:47:54;;;;;;;;;;;;;;;19.19;37.85;100097.67;104675;1286;61640;-84
2023/04/04 11:50:20;;;;;;;;;;;;;;;19.26;37.82;100094.61;104866;1286;61300;-82
2023/04/04 11:52:45;;;;;;;;;;;;;;;19.32;37.74;100089.73;104973;1289;61230;-83
2023/04/04 11:55:14;;;;;;;;;;;;;;;19.32;37.86;100089.73;104768;1286;61460;-84
2023/04/04 11:57:41;;;;;;;;;;;;;;;19.32;37.73;100093.63;105042;1291;74298;-83
2023/04/04 12:00:08;;;;;;;;;;;;;;;19.25;37.72;100091.36;104780;1289;61277;-83
2023/04/04 12:02:33;;;;;;;;;;;;;;;19.21;37.80;100090.88;104830;1292;61362;-83
2023/04/04 12:04:59;;;;;;;;;;;;;;;19.19;37.79;100097.46;105223;1291;59545;-82
2023/04/04 12:07:25;;;;;;;;;;;;;;;19.07;37.81;100094.42;105704;1287;59602;-82
2023/04/04 12:09:51;;;;;;;;;;;;;;;18.99;37.79;100092.73;105980;1286;61861;-82
2023/04/04 12:12:16;;;;;;;;;;;;;;;19.02;37.83;100088.02;105782;1286;61378;-83
2023/04/04 12:14:42;;;;;;;;;;;;;;;19.08;37.83;100090.06;105724;1286;60083;-83
2023/04/04 12:17:07;;;;;;;;;;;;;;;19.16;37.76;100091.11;105794;1291;60119;-82
2023/04/04 12:19:39;;;;;;;;;;;;;;;19.24;37.67;100085.35;104824;1286;61448;-82
2023/04/04 12:22:05;;;;;;;;;;;;;;;19.33;37.85;100092.02;104501;1293;61256;-82